createdAt,value
2017-12-15T00:00:19.797Z,92.00
2017-12-15T00:01:19.790Z,92.28
2017-12-15T00:02:19.790Z,91.81
2017-12-15T00:03:19.779Z,92.47
2017-12-15T00:04:19.774Z,92.38
2017-12-15T00:05:19.767Z,93.04
2017-12-15T00:06:19.763Z,92.47
2017-12-15T00:07:19.756Z,92.28
2017-12-15T00:08:19.751Z,92.38
2017-12-15T00:09:19.745Z,92.38
2017-12-15T00:10:19.739Z,92.57
2017-12-15T00:11:19.734Z,92.38
2017-12-15T00:12:19.729Z,92.19
2017-12-15T00:13:19.722Z,92.66
2017-12-15T00:14:19.717Z,92.28
2017-12-15T00:15:19.711Z,92.28
2017-12-15T00:16:19.707Z,92.28
2017-12-15T00:17:19.700Z,92.00
2017-12-15T00:18:19.695Z,92.76
2017-12-15T00:19:19.689Z,92.19
2017-12-15T00:20:19.684Z,92.47
2017-12-15T00:21:19.685Z,91.81
2017-12-15T00:22:19.672Z,91.81
2017-12-15T00:23:19.667Z,91.43
2017-12-15T00:24:19.661Z,91.71
2017-12-15T00:25:19.654Z,91.52
2017-12-15T00:26:19.649Z,91.71
2017-12-15T00:27:19.643Z,92.00
2017-12-15T00:28:19.638Z,92.38
2017-12-15T00:29:19.632Z,92.19
2017-12-15T00:30:19.627Z,92.47
2017-12-15T00:31:19.622Z,93.23
2017-12-15T00:32:19.616Z,92.76
2017-12-15T00:33:19.609Z,93.32
2017-12-15T00:34:19.604Z,93.51
2017-12-15T00:35:19.604Z,93.42
2017-12-15T00:36:19.593Z,93.42
2017-12-15T00:37:19.593Z,93.99
2017-12-15T00:38:19.583Z,94.13
2017-12-15T00:39:19.576Z,94.32
2017-12-15T00:40:19.571Z,94.23
2017-12-15T00:41:19.564Z,94.27
2017-12-15T00:42:19.560Z,94.04
2017-12-15T00:43:19.555Z,93.46
2017-12-15T00:44:19.549Z,93.75
2017-12-15T00:45:19.541Z,94.13
2017-12-15T00:46:19.537Z,94.60
2017-12-15T00:47:19.531Z,94.98
2017-12-15T00:48:19.526Z,95.45
2017-12-15T00:49:19.520Z,95.64
2017-12-15T00:50:19.514Z,95.45
2017-12-15T00:51:19.508Z,95.36
2017-12-15T00:52:19.503Z,95.93
2017-12-15T00:53:19.496Z,95.93
2017-12-15T00:54:19.490Z,95.64
2017-12-15T00:55:19.483Z,95.45
2017-12-15T00:56:19.478Z,95.83
2017-12-15T00:57:19.472Z,96.31
2017-12-15T00:58:19.466Z,96.40
2017-12-15T00:59:19.460Z,96.50
2017-12-15T01:00:19.455Z,96.31
2017-12-15T01:01:19.448Z,96.31
2017-12-15T01:02:19.441Z,96.31
2017-12-15T01:03:19.435Z,96.31
2017-12-15T01:04:19.430Z,95.93
2017-12-15T01:05:19.423Z,96.21
2017-12-15T01:06:19.418Z,96.21
2017-12-15T01:07:19.412Z,96.88
2017-12-15T01:08:19.406Z,96.50
2017-12-15T01:09:19.400Z,96.40
2017-12-15T01:10:19.394Z,95.93
2017-12-15T01:12:19.383Z,96.31
2017-12-15T01:13:19.376Z,95.74
2017-12-15T01:14:19.370Z,95.45
2017-12-15T01:15:19.364Z,95.26
2017-12-15T01:16:19.360Z,95.26
2017-12-15T01:17:19.352Z,95.17
2017-12-15T01:18:19.347Z,94.79
2017-12-15T01:19:19.342Z,95.07
2017-12-15T01:20:19.336Z,94.89
2017-12-15T01:21:19.329Z,94.70
2017-12-15T01:22:19.322Z,95.07
2017-12-15T01:23:19.317Z,94.89
2017-12-15T01:24:19.311Z,94.79
2017-12-15T01:25:19.304Z,94.89
2017-12-15T01:26:19.309Z,95.17
2017-12-15T01:27:19.294Z,94.89
2017-12-15T01:28:19.288Z,95.45
2017-12-15T01:29:19.281Z,95.26
2017-12-15T01:30:19.277Z,95.55
2017-12-15T01:31:19.271Z,95.26
2017-12-15T01:32:19.265Z,95.45
2017-12-15T01:33:19.258Z,95.74
2017-12-15T01:34:19.252Z,94.98
2017-12-15T01:35:19.247Z,95.17
2017-12-15T01:36:19.240Z,95.26
2017-12-15T01:37:19.234Z,94.98
2017-12-15T01:38:19.232Z,94.89
2017-12-15T01:39:19.223Z,94.89
2017-12-15T01:40:19.218Z,94.84
2017-12-15T01:41:19.211Z,94.93
2017-12-15T01:42:19.207Z,95.03
2017-12-15T01:43:19.200Z,94.51
2017-12-15T01:44:19.194Z,94.18
2017-12-15T01:45:19.188Z,94.18
2017-12-15T01:46:19.183Z,93.94
2017-12-15T01:47:19.178Z,95.07
2017-12-15T01:48:19.172Z,95.07
2017-12-15T01:49:19.165Z,95.17
2017-12-15T01:50:19.163Z,95.45
2017-12-15T01:51:19.153Z,95.93
2017-12-15T01:52:19.148Z,96.21
2017-12-15T01:53:19.141Z,96.12
2017-12-15T01:54:19.137Z,96.88
2017-12-15T01:55:19.130Z,96.78
2017-12-15T01:56:19.124Z,96.69
2017-12-15T01:57:19.117Z,96.12
2017-12-15T01:58:19.112Z,96.31
2017-12-15T01:59:19.107Z,95.93
2017-12-15T02:00:19.099Z,95.55
2017-12-15T02:01:19.093Z,95.64
2017-12-15T02:02:19.088Z,95.83
2017-12-15T02:03:19.083Z,95.45
2017-12-15T02:04:19.077Z,95.07
2017-12-15T02:05:19.070Z,94.79
2017-12-15T02:06:19.068Z,94.60
2017-12-15T02:07:19.058Z,94.89
2017-12-15T02:08:19.053Z,95.36
2017-12-15T02:09:19.047Z,94.98
2017-12-15T02:10:19.041Z,95.07
2017-12-15T02:11:19.035Z,95.07
2017-12-15T02:12:19.028Z,95.26
2017-12-15T02:13:19.022Z,95.64
2017-12-15T02:14:19.017Z,95.88
2017-12-15T02:15:19.011Z,96.16
2017-12-15T02:16:19.009Z,96.64
2017-12-15T02:17:18.997Z,96.64
2017-12-15T02:18:18.992Z,97.11
2017-12-15T02:19:18.986Z,97.02
2017-12-15T02:20:18.980Z,97.11
2017-12-15T02:21:18.973Z,97.20
2017-12-15T02:22:18.970Z,97.49
2017-12-15T02:23:18.966Z,98.15
2017-12-15T02:24:18.957Z,98.34
2017-12-15T02:25:18.948Z,98.34
2017-12-15T02:26:18.943Z,98.34
2017-12-15T02:27:18.937Z,98.96
2017-12-15T02:28:18.930Z,98.96
2017-12-15T02:29:18.922Z,99.15
2017-12-15T02:30:18.918Z,98.96
2017-12-15T02:31:18.919Z,99.05
2017-12-15T02:32:18.905Z,98.77
2017-12-15T02:33:18.896Z,99.10
2017-12-15T02:34:18.889Z,99.10
2017-12-15T02:35:18.884Z,99.10
2017-12-15T02:36:18.879Z,99.10
2017-12-15T02:37:18.871Z,98.82
2017-12-15T02:38:18.864Z,98.63
2017-12-15T02:39:18.864Z,98.63
2017-12-15T02:40:18.852Z,98.15
2017-12-15T02:41:18.843Z,98.15
2017-12-15T02:42:18.837Z,98.06
2017-12-15T02:43:18.832Z,97.49
2017-12-15T02:44:18.825Z,97.49
2017-12-15T02:45:18.817Z,97.30
2017-12-15T02:46:18.812Z,96.64
2017-12-15T02:47:18.805Z,97.02
2017-12-15T02:48:18.799Z,97.30
2017-12-15T02:49:18.792Z,96.92
2017-12-15T02:50:18.787Z,96.73
2017-12-15T02:51:18.788Z,96.26
2017-12-15T02:52:18.773Z,95.97
2017-12-15T02:53:18.765Z,96.07
2017-12-15T02:54:18.760Z,96.45
2017-12-15T02:55:18.752Z,96.45
2017-12-15T02:56:18.750Z,97.49
2017-12-15T02:57:18.740Z,97.39
2017-12-15T02:58:18.734Z,97.02
2017-12-15T02:59:18.729Z,97.11
2017-12-15T03:00:18.722Z,97.49
2017-12-15T03:01:18.713Z,96.73
2017-12-15T03:02:18.707Z,97.20
2017-12-15T03:03:18.702Z,97.39
2017-12-15T03:04:18.695Z,97.68
2017-12-15T03:05:18.688Z,97.68
2017-12-15T03:06:18.681Z,97.77
2017-12-15T03:07:18.675Z,97.02
2017-12-15T03:08:18.669Z,97.87
2017-12-15T03:09:18.661Z,97.20
2017-12-15T03:10:18.656Z,97.11
2017-12-15T03:11:18.650Z,96.64
2017-12-15T03:12:18.644Z,95.88
2017-12-15T03:13:18.638Z,95.88
2017-12-15T03:14:18.629Z,95.74
2017-12-15T03:15:18.625Z,95.78
2017-12-15T03:16:18.617Z,95.59
2017-12-15T03:17:18.611Z,95.45
2017-12-15T03:18:18.605Z,95.45
2017-12-15T03:19:18.598Z,94.84
2017-12-15T03:20:18.592Z,95.26
2017-12-15T03:21:18.585Z,95.21
2017-12-15T03:22:18.579Z,94.70
2017-12-15T03:23:18.572Z,95.26
2017-12-15T03:24:18.566Z,95.17
2017-12-15T03:25:18.559Z,95.07
2017-12-15T03:26:18.554Z,95.07
2017-12-15T03:27:18.547Z,95.45
2017-12-15T03:28:18.541Z,95.36
2017-12-15T03:29:18.533Z,95.74
2017-12-15T03:30:18.529Z,96.50
2017-12-15T03:31:18.522Z,96.21
2017-12-15T03:32:18.517Z,96.02
2017-12-15T03:33:18.507Z,96.40
2017-12-15T03:34:18.505Z,95.83
2017-12-15T03:35:18.496Z,95.07
2017-12-15T03:36:18.489Z,94.98
2017-12-15T03:37:18.482Z,94.98
2017-12-15T03:38:18.477Z,94.13
2017-12-15T03:39:18.470Z,94.04
2017-12-15T03:40:18.464Z,94.32
2017-12-15T03:41:18.458Z,94.04
2017-12-15T03:42:18.452Z,94.13
2017-12-15T03:43:18.445Z,92.99
2017-12-15T03:44:18.440Z,92.90
2017-12-15T03:45:18.433Z,93.27
2017-12-15T03:46:18.425Z,93.37
2017-12-15T03:47:18.419Z,92.52
2017-12-15T03:48:18.415Z,92.24
2017-12-15T03:49:18.407Z,92.43
2017-12-15T03:50:18.403Z,91.48
2017-12-15T03:51:18.395Z,90.44
2017-12-15T03:52:18.389Z,90.91
2017-12-15T03:53:18.382Z,90.53
2017-12-15T03:54:18.375Z,89.68
2017-12-15T03:55:18.370Z,88.68
2017-12-15T03:56:18.364Z,84.32
2017-12-15T03:57:18.357Z,84.61
2017-12-15T03:58:18.351Z,85.65
2017-12-15T03:59:18.345Z,85.55
2017-12-15T04:00:18.341Z,86.03
2017-12-15T04:01:18.332Z,85.93
2017-12-15T04:02:18.326Z,85.27
2017-12-15T04:03:18.320Z,83.94
2017-12-15T04:04:18.314Z,84.13
2017-12-15T04:05:18.305Z,84.61
2017-12-15T04:06:18.301Z,84.42
2017-12-15T04:07:18.295Z,84.51
2017-12-15T04:08:18.292Z,85.74
2017-12-15T04:09:18.281Z,86.03
2017-12-15T04:10:18.274Z,85.99
2017-12-15T04:11:18.269Z,84.00
2017-12-15T04:12:18.262Z,83.81
2017-12-15T04:13:18.254Z,84.89
2017-12-15T04:14:18.250Z,84.66
2017-12-15T04:15:18.242Z,84.23
2017-12-15T04:16:18.236Z,82.52
2017-12-15T04:17:18.228Z,82.81
2017-12-15T04:18:18.223Z,82.90
2017-12-15T04:19:18.217Z,83.71
2017-12-15T04:20:18.210Z,82.71
2017-12-15T04:21:18.204Z,82.76
2017-12-15T04:22:18.197Z,83.37
2017-12-15T04:23:18.204Z,82.90
2017-12-15T04:24:18.184Z,83.18
2017-12-15T04:25:18.177Z,84.09
2017-12-15T04:26:18.171Z,83.90
2017-12-15T04:27:18.163Z,83.71
2017-12-15T04:28:18.158Z,83.81
2017-12-15T04:29:18.149Z,84.23
2017-12-15T04:30:18.146Z,83.81
2017-12-15T04:31:18.137Z,84.66
2017-12-15T04:32:18.131Z,85.04
2017-12-15T04:33:18.123Z,84.94
2017-12-15T04:34:18.116Z,85.61
2017-12-15T04:35:18.110Z,85.70
2017-12-15T04:36:18.105Z,85.70
2017-12-15T04:37:18.101Z,85.42
2017-12-15T04:38:18.090Z,85.42
2017-12-15T04:39:18.084Z,85.51
2017-12-15T04:40:18.077Z,85.51
2017-12-15T04:41:18.070Z,85.42
2017-12-15T04:42:18.064Z,85.42
2017-12-15T04:43:18.056Z,85.80
2017-12-15T04:44:18.051Z,85.80
2017-12-15T04:45:18.044Z,86.18
2017-12-15T04:46:18.037Z,86.18
2017-12-15T04:47:18.031Z,86.36
2017-12-15T04:48:18.024Z,85.61
2017-12-15T04:49:18.015Z,85.23
2017-12-15T04:50:18.014Z,84.85
2017-12-15T04:51:18.006Z,84.75
2017-12-15T04:52:17.997Z,84.94
2017-12-15T04:53:17.987Z,84.56
2017-12-15T04:54:17.983Z,84.00
2017-12-15T04:55:17.975Z,84.19
2017-12-15T04:56:17.977Z,84.09
2017-12-15T04:57:17.962Z,84.56
2017-12-15T04:58:17.955Z,84.47
2017-12-15T04:59:17.948Z,84.28
2017-12-15T05:00:17.942Z,84.85
2017-12-15T05:01:17.934Z,85.99
2017-12-15T05:02:17.929Z,86.18
2017-12-15T05:03:17.921Z,85.80
2017-12-15T05:04:17.914Z,85.51
2017-12-15T05:05:17.907Z,86.08
2017-12-15T05:06:17.900Z,86.27
2017-12-15T05:07:17.895Z,85.99
2017-12-15T05:08:17.887Z,86.36
2017-12-15T05:09:17.879Z,87.02
2017-12-15T05:10:17.874Z,86.36
2017-12-15T05:11:17.869Z,86.83
2017-12-15T05:12:17.859Z,86.74
2017-12-15T05:13:17.854Z,86.46
2017-12-15T05:14:17.846Z,86.18
2017-12-15T05:15:17.841Z,86.31
2017-12-15T05:16:17.835Z,86.46
2017-12-15T05:17:17.827Z,85.99
2017-12-15T05:18:17.820Z,86.55
2017-12-15T05:19:17.814Z,86.36
2017-12-15T05:20:17.807Z,86.74
2017-12-15T05:21:17.801Z,86.27
2017-12-15T05:22:17.794Z,86.36
2017-12-15T05:23:17.788Z,85.89
2017-12-15T05:24:17.789Z,85.74
2017-12-15T05:25:17.775Z,85.46
2017-12-15T05:26:17.769Z,85.65
2017-12-15T05:27:17.763Z,85.74
2017-12-15T05:28:17.756Z,85.74
2017-12-15T05:29:17.749Z,85.17
2017-12-15T05:30:17.744Z,85.17
2017-12-15T05:31:17.737Z,84.99
2017-12-15T05:32:17.731Z,85.08
2017-12-15T05:33:17.726Z,85.46
2017-12-15T05:34:17.718Z,85.55
2017-12-15T05:35:17.712Z,85.84
2017-12-15T05:36:17.707Z,86.22
2017-12-15T05:37:17.701Z,86.79
2017-12-15T05:38:17.701Z,87.21
2017-12-15T05:39:17.688Z,87.50
2017-12-15T05:40:17.682Z,86.93
2017-12-15T05:41:17.675Z,87.78
2017-12-15T05:42:17.670Z,88.17
2017-12-15T05:43:17.663Z,88.26
2017-12-15T05:44:17.659Z,88.07
2017-12-15T05:45:17.651Z,88.45
2017-12-15T05:46:17.645Z,88.92
2017-12-15T05:47:17.638Z,88.26
2017-12-15T05:48:17.632Z,87.98
2017-12-15T05:49:17.625Z,87.88
2017-12-15T05:50:17.626Z,88.82
2017-12-15T05:51:17.613Z,88.54
2017-12-15T05:52:17.608Z,88.64
2017-12-15T05:53:17.600Z,88.73
2017-12-15T05:54:17.597Z,88.92
2017-12-15T05:55:17.588Z,88.73
2017-12-15T05:56:17.582Z,88.54
2017-12-15T05:57:17.575Z,88.64
2017-12-15T05:58:17.568Z,89.11
2017-12-15T05:59:17.562Z,89.11
2017-12-15T06:00:17.556Z,88.73
2017-12-15T06:01:17.550Z,88.73
2017-12-15T06:02:17.546Z,88.92
2017-12-15T06:03:17.538Z,88.17
2017-12-15T06:04:17.533Z,88.26
2017-12-15T06:05:17.525Z,88.07
2017-12-15T06:06:17.519Z,87.59
2017-12-15T06:07:17.518Z,87.59
2017-12-15T06:08:17.542Z,87.69
2017-12-15T06:09:17.499Z,87.78
2017-12-15T06:10:17.495Z,88.07
2017-12-15T06:11:17.487Z,88.35
2017-12-15T06:12:17.483Z,88.54
2017-12-15T06:13:17.475Z,88.92
2017-12-15T06:14:17.469Z,89.30
2017-12-15T06:15:17.462Z,89.49
2017-12-15T06:16:17.457Z,89.87
2017-12-15T06:17:17.450Z,90.34
2017-12-15T06:18:17.444Z,90.34
2017-12-15T06:19:17.439Z,90.34
2017-12-15T06:20:17.433Z,90.15
2017-12-15T06:21:17.427Z,90.63
2017-12-15T06:22:17.419Z,90.63
2017-12-15T06:23:17.413Z,88.92
2017-12-15T06:24:17.407Z,89.11
2017-12-15T06:25:17.400Z,89.11
2017-12-15T06:26:17.394Z,88.82
2017-12-15T06:27:17.389Z,88.73
2017-12-15T06:28:17.384Z,88.73
2017-12-15T06:29:17.377Z,88.82
2017-12-15T06:30:17.371Z,87.02
2017-12-15T06:31:17.365Z,86.93
2017-12-15T06:32:17.358Z,86.83
2017-12-15T06:33:17.351Z,86.18
2017-12-15T06:34:17.346Z,86.88
2017-12-15T06:35:17.340Z,87.59
2017-12-15T06:36:17.336Z,89.20
2017-12-15T06:37:17.326Z,89.30
2017-12-15T06:38:17.320Z,89.58
2017-12-15T06:39:17.314Z,89.39
2017-12-15T06:40:17.310Z,89.87
2017-12-15T06:41:17.301Z,89.68
2017-12-15T06:42:17.295Z,89.11
2017-12-15T06:43:17.289Z,89.96
2017-12-15T06:44:17.282Z,89.39
2017-12-15T06:45:17.283Z,89.20
2017-12-15T06:46:17.271Z,89.11
2017-12-15T06:47:17.264Z,89.68
2017-12-15T06:48:17.259Z,89.87
2017-12-15T06:49:17.251Z,89.68
2017-12-15T06:50:17.249Z,89.11
2017-12-15T06:51:17.240Z,89.39
2017-12-15T06:52:17.236Z,89.49
2017-12-15T06:53:17.226Z,89.77
2017-12-15T06:54:17.221Z,89.49
2017-12-15T06:55:17.215Z,89.01
2017-12-15T06:56:17.209Z,88.35
2017-12-15T06:57:17.202Z,89.11
2017-12-15T06:58:17.195Z,88.96
2017-12-15T06:59:17.192Z,88.64
2017-12-15T07:00:17.184Z,89.49
2017-12-15T07:01:17.177Z,89.96
2017-12-15T07:02:17.173Z,90.34
2017-12-15T07:03:17.170Z,90.81
2017-12-15T07:04:17.160Z,91.29
2017-12-15T07:05:17.153Z,91.00
2017-12-15T07:06:17.149Z,91.00
2017-12-15T07:07:17.148Z,91.48
2017-12-15T07:08:17.136Z,91.67
2017-12-15T07:09:17.129Z,91.86
2017-12-15T07:10:17.122Z,91.38
2017-12-15T07:11:17.116Z,91.38
2017-12-15T07:12:17.110Z,91.57
2017-12-15T07:13:17.104Z,91.19
2017-12-15T07:14:17.098Z,90.91
2017-12-15T07:15:17.092Z,89.87
2017-12-15T07:16:17.087Z,90.06
2017-12-15T07:17:17.079Z,89.77
2017-12-15T07:18:17.074Z,89.11
2017-12-15T07:19:17.067Z,89.01
2017-12-15T07:20:17.062Z,88.92
2017-12-15T07:21:17.053Z,88.35
2017-12-15T07:22:17.048Z,87.31
2017-12-15T07:23:17.042Z,86.74
2017-12-15T07:24:17.037Z,85.99
2017-12-15T07:25:17.030Z,86.55
2017-12-15T07:26:17.024Z,87.12
2017-12-15T07:27:17.018Z,87.69
2017-12-15T07:28:17.012Z,87.98
2017-12-15T07:29:17.005Z,87.78
2017-12-15T07:30:16.999Z,87.40
2017-12-15T07:31:16.994Z,87.78
2017-12-15T07:32:16.987Z,87.59
2017-12-15T07:33:16.982Z,87.78
2017-12-15T07:34:16.976Z,87.02
2017-12-15T07:35:16.975Z,87.21
2017-12-15T07:36:16.963Z,86.74
2017-12-15T07:37:16.964Z,86.55
2017-12-15T07:38:16.950Z,86.65
2017-12-15T07:39:16.946Z,85.99
2017-12-15T07:40:16.939Z,87.02
2017-12-15T07:41:16.933Z,86.83
2017-12-15T07:42:16.927Z,85.99
2017-12-15T07:43:16.922Z,85.99
2017-12-15T07:44:16.914Z,85.80
2017-12-15T07:45:16.909Z,86.08
2017-12-15T07:46:16.901Z,86.74
2017-12-15T07:47:16.897Z,86.65
2017-12-15T07:48:16.890Z,87.12
2017-12-15T07:49:16.883Z,86.93
2017-12-15T07:50:16.880Z,86.74
2017-12-15T07:51:16.872Z,87.78
2017-12-15T07:52:16.867Z,88.17
2017-12-15T07:53:16.861Z,88.54
2017-12-15T07:54:16.854Z,88.45
2017-12-15T07:55:16.861Z,89.01
2017-12-15T07:56:16.843Z,89.11
2017-12-15T07:57:16.836Z,88.82
2017-12-15T07:58:16.830Z,89.20
2017-12-15T07:59:16.824Z,89.87
2017-12-15T08:00:16.819Z,90.25
2017-12-15T08:01:16.812Z,90.81
2017-12-15T08:02:16.807Z,90.34
2017-12-15T08:03:16.802Z,90.44
2017-12-15T08:04:16.794Z,90.91
2017-12-15T08:05:16.788Z,91.10
2017-12-15T08:06:16.782Z,90.72
2017-12-15T08:07:17.077Z,91.10
2017-12-15T08:08:16.770Z,91.48
2017-12-15T08:09:16.765Z,91.29
2017-12-15T08:10:16.761Z,91.00
2017-12-15T08:11:16.754Z,90.81
2017-12-15T08:12:16.748Z,90.53
2017-12-15T08:13:16.741Z,89.58
2017-12-15T08:14:16.737Z,89.58
2017-12-15T08:15:16.730Z,89.96
2017-12-15T08:16:16.724Z,89.58
2017-12-15T08:17:16.718Z,89.77
2017-12-15T08:18:16.713Z,89.68
2017-12-15T08:19:16.706Z,89.77
2017-12-15T08:20:16.708Z,89.87
2017-12-15T08:21:16.695Z,89.68
2017-12-15T08:22:16.689Z,90.25
2017-12-15T08:23:16.683Z,90.34
2017-12-15T08:24:16.677Z,90.81
2017-12-15T08:25:16.672Z,91.00
2017-12-15T08:26:16.665Z,91.10
2017-12-15T08:27:16.659Z,91.48
2017-12-15T08:28:16.653Z,91.57
2017-12-15T08:29:16.647Z,91.95
2017-12-15T08:30:16.641Z,91.95
2017-12-15T08:31:16.643Z,91.67
2017-12-15T08:32:16.630Z,91.19
2017-12-15T08:33:16.623Z,90.63
2017-12-15T08:34:16.619Z,91.10
2017-12-15T08:35:16.611Z,91.00
2017-12-15T08:36:16.606Z,91.00
2017-12-15T08:37:16.599Z,91.67
2017-12-15T08:38:16.595Z,91.76
2017-12-15T08:39:16.588Z,92.05
2017-12-15T08:40:16.585Z,92.24
2017-12-15T08:41:16.576Z,91.86
2017-12-15T08:42:16.571Z,91.38
2017-12-15T08:43:16.567Z,91.76
2017-12-15T08:44:16.562Z,91.57
2017-12-15T08:45:16.555Z,91.57
2017-12-15T08:46:16.548Z,90.91
2017-12-15T08:47:16.543Z,90.63
2017-12-15T08:48:16.537Z,90.06
2017-12-15T08:49:16.532Z,89.96
2017-12-15T08:50:16.527Z,89.77
2017-12-15T08:51:16.522Z,90.25
2017-12-15T08:52:16.516Z,90.44
2017-12-15T08:53:16.508Z,90.44
2017-12-15T08:54:16.505Z,90.15
2017-12-15T08:55:16.499Z,90.39
2017-12-15T08:56:16.493Z,90.20
2017-12-15T08:57:16.488Z,88.59
2017-12-15T08:58:16.482Z,88.68
2017-12-15T08:59:16.477Z,88.59
2017-12-15T09:00:16.472Z,89.25
2017-12-15T09:01:16.466Z,89.34
2017-12-15T09:02:16.460Z,90.01
2017-12-15T09:03:16.469Z,89.82
2017-12-15T09:04:16.452Z,89.91
2017-12-15T09:05:16.444Z,89.68
2017-12-15T09:06:16.439Z,89.77
2017-12-15T09:07:16.433Z,89.96
2017-12-15T09:08:16.428Z,90.15
2017-12-15T09:09:16.422Z,90.44
2017-12-15T09:10:16.418Z,90.06
2017-12-15T09:11:16.412Z,90.91
2017-12-15T09:12:16.407Z,91.00
2017-12-15T09:13:16.401Z,91.00
2017-12-15T09:14:16.396Z,90.53
2017-12-15T09:15:16.425Z,90.72
2017-12-15T09:16:16.411Z,90.34
2017-12-15T09:17:16.377Z,90.44
2017-12-15T09:18:16.373Z,90.06
2017-12-15T09:19:16.368Z,90.81
2017-12-15T09:20:16.370Z,91.00
2017-12-15T09:21:16.357Z,90.91
2017-12-15T09:22:16.351Z,90.81
2017-12-15T09:23:16.345Z,90.25
2017-12-15T09:24:16.349Z,89.34
2017-12-15T09:25:16.333Z,86.88
2017-12-15T09:26:16.327Z,83.28
2017-12-15T09:27:16.322Z,80.38
2017-12-15T09:28:16.317Z,80.48
2017-12-15T09:29:16.312Z,79.53
2017-12-15T09:30:16.330Z,79.63
2017-12-15T09:31:16.303Z,80.29
2017-12-15T09:32:16.297Z,81.33
2017-12-15T09:33:16.292Z,83.70
2017-12-15T09:34:16.286Z,85.74
2017-12-15T09:35:16.281Z,86.50
2017-12-15T09:36:16.275Z,86.22
2017-12-15T09:37:16.270Z,86.50
2017-12-15T09:38:16.266Z,87.07
2017-12-15T09:39:16.261Z,87.35
2017-12-15T09:40:16.255Z,87.64
2017-12-15T09:41:16.249Z,87.92
2017-12-15T09:42:16.244Z,88.02
2017-12-15T09:43:16.240Z,88.78
2017-12-15T09:44:16.234Z,88.49
2017-12-15T09:45:16.228Z,87.64
2017-12-15T09:46:16.223Z,86.60
2017-12-15T09:47:16.218Z,86.35
2017-12-15T09:48:16.214Z,86.35
2017-12-15T09:49:16.206Z,85.78
2017-12-15T09:50:16.203Z,85.13
2017-12-15T09:51:16.198Z,84.65
2017-12-15T09:52:16.196Z,84.94
2017-12-15T09:53:16.187Z,85.78
2017-12-15T09:54:16.184Z,85.78
2017-12-15T09:55:16.179Z,86.26
2017-12-15T09:56:16.174Z,86.12
2017-12-15T09:57:16.168Z,87.07
2017-12-15T09:58:16.163Z,87.35
2017-12-15T09:59:16.159Z,87.92
2017-12-15T10:00:16.154Z,87.83
2017-12-15T10:01:16.148Z,87.92
2017-12-15T10:02:16.144Z,88.21
2017-12-15T10:03:16.139Z,88.59
2017-12-15T10:04:16.134Z,88.30
2017-12-15T10:05:16.130Z,87.26
2017-12-15T10:06:16.124Z,86.03
2017-12-15T10:07:16.118Z,86.31
2017-12-15T10:08:16.116Z,85.55
2017-12-15T10:09:16.109Z,84.89
2017-12-15T10:10:16.104Z,84.89
2017-12-15T10:11:16.100Z,84.99
2017-12-15T10:12:16.094Z,85.74
2017-12-15T10:13:16.088Z,85.46
2017-12-15T10:14:16.083Z,85.55
2017-12-15T10:15:16.077Z,85.55
2017-12-15T10:16:16.074Z,85.93
2017-12-15T10:17:16.068Z,86.31
2017-12-15T10:18:16.115Z,86.69
2017-12-15T10:19:16.058Z,87.16
2017-12-15T10:20:16.053Z,87.16
2017-12-15T10:21:16.046Z,87.16
2017-12-15T10:22:16.043Z,87.26
2017-12-15T10:23:16.036Z,87.16
2017-12-15T10:24:16.034Z,87.26
2017-12-15T10:25:16.026Z,87.07
2017-12-15T10:26:16.022Z,87.07
2017-12-15T10:27:16.017Z,87.26
2017-12-15T10:28:16.011Z,87.83
2017-12-15T10:29:16.007Z,88.30
2017-12-15T10:30:16.003Z,89.06
2017-12-15T10:31:15.998Z,89.34
2017-12-15T10:32:15.992Z,89.34
2017-12-15T10:33:15.985Z,89.91
2017-12-15T10:34:15.981Z,89.63
2017-12-15T10:35:15.977Z,89.63
2017-12-15T10:36:15.971Z,89.91
2017-12-15T10:37:15.965Z,90.01
2017-12-15T10:38:15.963Z,89.82
2017-12-15T10:39:15.957Z,90.01
2017-12-15T10:40:15.952Z,89.34
2017-12-15T10:41:15.946Z,89.53
2017-12-15T10:42:15.941Z,89.82
2017-12-15T10:43:15.936Z,89.72
2017-12-15T10:44:15.931Z,89.82
2017-12-15T10:45:15.926Z,90.20
2017-12-15T10:46:15.920Z,90.48
2017-12-15T10:47:15.915Z,90.48
2017-12-15T10:48:15.912Z,90.10
2017-12-15T10:49:15.906Z,90.29
2017-12-15T10:50:15.901Z,89.82
2017-12-15T10:51:15.895Z,89.82
2017-12-15T10:52:15.919Z,89.82
2017-12-15T10:53:15.885Z,90.44
2017-12-15T10:54:15.880Z,90.34
2017-12-15T10:55:15.876Z,90.06
2017-12-15T10:56:15.871Z,90.53
2017-12-15T10:57:15.865Z,90.25
2017-12-15T10:58:15.861Z,90.34
2017-12-15T10:59:15.857Z,90.67
2017-12-15T11:00:15.851Z,90.44
2017-12-15T11:01:15.845Z,90.53
2017-12-15T11:02:15.840Z,90.20
2017-12-15T11:03:15.834Z,90.91
2017-12-15T11:04:15.830Z,91.14
2017-12-15T11:05:15.824Z,90.77
2017-12-15T11:06:15.826Z,90.01
2017-12-15T11:07:15.815Z,89.63
2017-12-15T11:08:15.809Z,89.34
2017-12-15T11:09:15.807Z,88.68
2017-12-15T11:10:15.800Z,89.25
2017-12-15T11:11:15.794Z,88.96
2017-12-15T11:12:15.791Z,89.82
2017-12-15T11:13:15.783Z,90.10
2017-12-15T11:14:15.779Z,89.34
2017-12-15T11:15:15.774Z,88.96
2017-12-15T11:16:15.769Z,88.11
2017-12-15T11:17:15.765Z,88.30
2017-12-15T11:18:15.760Z,89.25
2017-12-15T11:19:15.755Z,88.73
2017-12-15T11:20:15.751Z,87.68
2017-12-15T11:21:15.744Z,86.64
2017-12-15T11:22:15.741Z,86.55
2017-12-15T11:23:15.737Z,85.74
2017-12-15T11:24:15.732Z,85.74
2017-12-15T11:25:15.727Z,85.36
2017-12-15T11:26:15.722Z,83.65
2017-12-15T11:27:15.720Z,83.46
2017-12-15T11:28:15.718Z,84.03
2017-12-15T11:29:15.711Z,83.74
2017-12-15T11:30:15.709Z,84.03
2017-12-15T11:31:15.705Z,83.03
2017-12-15T11:32:15.703Z,83.03
2017-12-15T11:33:15.700Z,81.23
2017-12-15T11:34:15.695Z,80.88
2017-12-15T11:35:15.692Z,81.07
2017-12-15T11:36:15.690Z,79.94
2017-12-15T11:37:15.687Z,79.46
2017-12-15T11:38:15.685Z,79.80
2017-12-15T11:39:15.683Z,80.94
2017-12-15T11:40:15.680Z,80.75
2017-12-15T11:41:15.678Z,80.98
2017-12-15T11:42:15.674Z,80.51
2017-12-15T11:43:15.674Z,79.94
2017-12-15T11:44:15.672Z,80.07
2017-12-15T11:45:15.668Z,79.31
2017-12-15T11:46:15.666Z,76.93
2017-12-15T11:47:15.666Z,75.70
2017-12-15T11:48:15.664Z,75.95
2017-12-15T11:49:15.662Z,77.28
2017-12-15T11:50:15.660Z,77.52
2017-12-15T11:51:15.660Z,79.23
2017-12-15T11:52:15.658Z,79.80
2017-12-15T11:53:15.655Z,79.85
2017-12-15T11:54:15.654Z,80.80
2017-12-15T11:55:15.652Z,81.27
2017-12-15T11:56:15.649Z,81.56
2017-12-15T11:57:15.647Z,82.42
2017-12-15T11:58:15.643Z,82.23
2017-12-15T11:59:15.641Z,81.94
2017-12-15T12:00:15.638Z,82.32
2017-12-15T12:01:15.647Z,81.51
2017-12-15T12:02:15.632Z,80.37
2017-12-15T12:03:15.629Z,81.23
2017-12-15T12:04:15.630Z,80.08
2017-12-15T12:05:15.624Z,79.04
2017-12-15T12:06:15.622Z,79.14
2017-12-15T12:07:15.619Z,78.47
2017-12-15T12:08:15.616Z,77.62
2017-12-15T12:09:15.613Z,78.38
2017-12-15T12:10:15.612Z,77.84
2017-12-15T12:11:15.610Z,77.56
2017-12-15T12:12:15.607Z,77.66
2017-12-15T12:13:15.604Z,76.99
2017-12-15T12:14:15.603Z,75.38
2017-12-15T12:15:15.599Z,76.99
2017-12-15T12:16:15.599Z,76.75
2017-12-15T12:17:15.595Z,75.60
2017-12-15T12:18:15.594Z,76.84
2017-12-15T12:19:15.594Z,74.94
2017-12-15T12:20:15.592Z,75.23
2017-12-15T12:21:15.590Z,75.51
2017-12-15T12:22:15.589Z,74.56
2017-12-15T12:23:15.587Z,75.23
2017-12-15T12:24:15.586Z,75.42
2017-12-15T12:25:15.584Z,73.04
2017-12-15T12:26:15.582Z,74.08
2017-12-15T12:27:15.582Z,75.04
2017-12-15T12:28:15.580Z,74.08
2017-12-15T12:29:15.578Z,73.65
2017-12-15T12:30:15.578Z,72.89
2017-12-15T12:31:15.578Z,72.28
2017-12-15T12:32:15.578Z,73.23
2017-12-15T12:33:15.577Z,73.42
2017-12-15T12:34:15.575Z,73.52
2017-12-15T12:35:15.576Z,73.96
2017-12-15T12:36:15.577Z,74.15
2017-12-15T12:37:15.575Z,74.71
2017-12-15T12:38:15.574Z,76.14
2017-12-15T12:39:15.574Z,75.57
2017-12-15T12:40:15.574Z,76.52
2017-12-15T12:41:15.571Z,75.76
2017-12-15T12:42:15.574Z,76.80
2017-12-15T12:43:15.571Z,78.32
2017-12-15T12:44:15.570Z,76.61
2017-12-15T12:45:15.570Z,76.86
2017-12-15T12:46:15.568Z,77.33
2017-12-15T12:47:15.567Z,77.71
2017-12-15T12:48:15.568Z,77.43
2017-12-15T12:49:15.565Z,77.14
2017-12-15T12:50:15.565Z,77.43
2017-12-15T12:51:15.563Z,78.09
2017-12-15T12:52:15.561Z,77.90
2017-12-15T12:53:15.559Z,78.66